createdAt,value
2022-09-02T00:02:12.513Z,100.00
2022-09-02T00:04:40.686Z,100.00
2022-09-02T00:07:09.051Z,100.00
2022-09-02T00:09:37.707Z,100.00
2022-09-02T00:12:06.855Z,100.00
2022-09-02T00:14:39.505Z,100.00
2022-09-02T00:17:07.561Z,100.00
2022-09-02T00:19:36.156Z,100.00
2022-09-02T00:22:05.165Z,100.00
2022-09-02T00:24:33.469Z,100.00
2022-09-02T00:27:01.609Z,100.00
2022-09-02T00:29:30.127Z,100.00
2022-09-02T00:32:00.412Z,100.00
2022-09-02T00:34:28.712Z,100.00
2022-09-02T00:36:56.907Z,100.00
2022-09-02T00:39:26.189Z,100.00
2022-09-02T00:41:54.343Z,100.00
2022-09-02T00:44:22.795Z,100.00
2022-09-02T00:46:51.025Z,100.00
2022-09-02T00:49:25.476Z,100.00
2022-09-02T00:51:58.645Z,100.00
2022-09-02T00:54:30.505Z,100.00
2022-09-02T00:56:59.874Z,100.00
2022-09-02T00:59:42.176Z,100.00
2022-09-02T01:02:10.449Z,100.00
2022-09-02T01:04:40.560Z,100.00
2022-09-02T01:07:09.594Z,100.00
2022-09-02T01:09:37.964Z,100.00
2022-09-02T01:12:07.123Z,100.00
2022-09-02T01:14:35.551Z,100.00
2022-09-02T01:17:05.284Z,100.00
2022-09-02T01:19:37.774Z,100.00
2022-09-02T01:22:19.685Z,100.00
2022-09-02T01:24:47.713Z,100.00
2022-09-02T01:27:18.378Z,100.00
2022-09-02T01:29:53.972Z,100.00
2022-09-02T01:32:22.512Z,100.00
2022-09-02T01:34:50.740Z,100.00
2022-09-02T01:37:21.416Z,100.00
2022-09-02T01:39:50.708Z,100.00
2022-09-02T01:42:19.498Z,100.00
2022-09-02T01:44:47.792Z,100.00
2022-09-02T01:47:19.309Z,100.00
2022-09-02T01:49:48.220Z,100.00
2022-09-02T01:52:18.053Z,100.00
2022-09-02T01:54:48.650Z,100.00
2022-09-02T01:57:17.286Z,100.00
2022-09-02T01:59:46.270Z,100.00
2022-09-02T02:02:18.255Z,100.00
2022-09-02T02:04:46.748Z,100.00
2022-09-02T02:07:16.350Z,100.00
2022-09-02T02:09:44.958Z,100.00
2022-09-02T02:12:17.537Z,100.00
2022-09-02T02:14:45.987Z,100.00
2022-09-02T02:17:14.167Z,100.00
2022-09-02T02:19:43.783Z,100.00
2022-09-02T02:22:14.088Z,100.00
2022-09-02T02:24:42.127Z,100.00
2022-09-02T02:27:10.109Z,100.00
2022-09-02T02:29:40.105Z,100.00
2022-09-02T02:32:08.606Z,100.00
2022-09-02T02:34:37.272Z,100.00
2022-09-02T02:37:06.032Z,100.00
2022-09-02T02:39:34.294Z,100.00
2022-09-02T02:42:02.740Z,100.00
2022-09-02T02:44:31.582Z,100.00
2022-09-02T02:47:02.395Z,100.00
2022-09-02T02:49:30.591Z,100.00
2022-09-02T02:51:58.863Z,100.00
2022-09-02T02:54:27.473Z,100.00
2022-09-02T02:57:04.284Z,100.00
2022-09-02T02:59:32.762Z,100.00
2022-09-02T03:02:02.240Z,100.00
2022-09-02T03:04:30.439Z,100.00
2022-09-02T03:06:58.682Z,100.00
2022-09-02T03:09:27.543Z,100.00
2022-09-02T03:11:55.990Z,100.00
2022-09-02T03:14:24.771Z,100.00
2022-09-02T03:16:53.593Z,100.00
2022-09-02T03:19:23.172Z,100.00
2022-09-02T03:21:51.818Z,100.00
2022-09-02T03:24:20.009Z,100.00
2022-09-02T03:26:48.332Z,100.00
2022-09-02T03:29:17.116Z,100.00
2022-09-02T03:31:46.174Z,100.00
2022-09-02T03:34:14.693Z,100.00
2022-09-02T03:36:45.190Z,100.00
2022-09-02T03:39:15.805Z,100.00
2022-09-02T03:41:45.595Z,100.00
2022-09-02T03:44:13.879Z,100.00
2022-09-02T03:46:43.342Z,100.00
2022-09-02T03:49:12.604Z,100.00
2022-09-02T03:51:44.002Z,100.00
2022-09-02T03:54:12.546Z,100.00
2022-09-02T03:56:42.087Z,100.00
2022-09-02T03:59:11.110Z,100.00
2022-09-02T04:01:39.865Z,100.00
2022-09-02T04:04:08.654Z,100.00
2022-09-02T04:06:39.085Z,100.00
2022-09-02T04:09:08.568Z,100.00
2022-09-02T04:11:42.678Z,100.00
2022-09-02T04:14:12.395Z,100.00
2022-09-02T04:16:41.115Z,100.00
2022-09-02T04:19:10.511Z,100.00
2022-09-02T04:21:41.852Z,100.00
2022-09-02T04:24:13.592Z,100.00
2022-09-02T04:26:46.116Z,100.00
2022-09-02T04:29:17.194Z,100.00
2022-09-02T04:31:48.808Z,100.00
2022-09-02T04:34:17.175Z,100.00
2022-09-02T04:36:45.785Z,100.00
2022-09-02T04:39:16.332Z,100.00
2022-09-02T04:41:45.409Z,100.00
2022-09-02T04:44:15.190Z,100.00
2022-09-02T04:46:48.455Z,100.00
2022-09-02T04:49:21.212Z,100.00
2022-09-02T04:51:54.400Z,100.00
2022-09-02T04:57:34.962Z,100.00
2022-09-02T05:00:06.804Z,100.00
2022-09-02T05:02:35.633Z,100.00
2022-09-02T05:05:03.927Z,100.00
2022-09-02T05:07:38.429Z,100.00
2022-09-02T05:10:09.344Z,100.00
2022-09-02T05:12:41.947Z,100.00
2022-09-02T05:15:12.236Z,100.00
2022-09-02T05:17:40.664Z,100.00
2022-09-02T05:20:10.627Z,100.00
2022-09-02T05:22:39.919Z,100.00
2022-09-02T05:25:11.906Z,100.00
2022-09-02T05:27:40.339Z,100.00
2022-09-02T05:30:10.110Z,100.00
2022-09-02T05:32:38.302Z,100.00
2022-09-02T05:35:08.195Z,100.00
2022-09-02T05:37:37.625Z,100.00
2022-09-02T05:40:09.074Z,100.00
2022-09-02T05:42:41.517Z,100.00
2022-09-02T05:45:12.060Z,100.00
2022-09-02T05:47:44.693Z,100.00
2022-09-02T05:50:15.084Z,100.00
2022-09-02T05:52:46.386Z,100.00
2022-09-02T05:55:14.411Z,100.00
2022-09-02T05:57:46.145Z,100.00
2022-09-02T06:00:17.954Z,100.00
2022-09-02T06:02:59.195Z,100.00
2022-09-02T06:05:38.413Z,100.00
2022-09-02T06:08:20.256Z,100.00
2022-09-02T06:10:48.564Z,100.00
2022-09-02T06:13:22.807Z,100.00
2022-09-02T06:15:53.553Z,100.00
2022-09-02T06:18:26.804Z,100.00
2022-09-02T06:20:57.093Z,100.00
2022-09-02T06:23:29.343Z,100.00
2022-09-02T06:26:01.420Z,100.00
2022-09-02T06:28:32.270Z,100.00
2022-09-02T06:31:01.899Z,100.00
2022-09-02T06:33:30.120Z,100.00
2022-09-02T06:35:59.405Z,100.00
2022-09-02T06:38:27.645Z,100.00
2022-09-02T06:40:56.725Z,100.00
2022-09-02T06:43:42.709Z,100.00
2022-09-02T06:46:26.768Z,100.00
2022-09-02T06:49:01.540Z,100.00
2022-09-02T06:51:33.563Z,100.00
2022-09-02T06:55:11.906Z,100.00
2022-09-02T06:57:41.159Z,100.00
2022-09-02T07:00:16.660Z,100.00
2022-09-02T07:03:04.876Z,100.00
2022-09-02T07:05:34.457Z,100.00
2022-09-02T07:08:02.561Z,100.00
2022-09-02T07:10:30.727Z,100.00
2022-09-02T07:13:03.661Z,100.00
2022-09-02T07:15:36.463Z,100.00
2022-09-02T07:18:57.333Z,100.00
2022-09-02T07:21:29.173Z,100.00
2022-09-02T07:23:59.667Z,100.00
2022-09-02T07:26:29.651Z,100.00
2022-09-02T07:28:58.509Z,100.00
2022-09-02T07:31:29.414Z,100.00
2022-09-02T07:33:59.474Z,100.00
2022-09-02T07:36:29.237Z,100.00
2022-09-02T07:38:59.233Z,100.00
2022-09-02T07:41:30.116Z,100.00
2022-09-02T07:43:59.846Z,100.00
2022-09-02T07:46:32.269Z,100.00
2022-09-02T07:49:01.056Z,100.00
2022-09-02T07:51:30.719Z,100.00
2022-09-02T07:54:00.685Z,100.00
2022-09-02T07:56:29.236Z,100.00
2022-09-02T07:58:58.029Z,100.00
2022-09-02T08:01:26.846Z,100.00
2022-09-02T08:03:59.371Z,100.00
2022-09-02T08:06:34.697Z,100.00
2022-09-02T08:09:04.712Z,100.00
2022-09-02T08:11:33.825Z,100.00
2022-09-02T08:14:03.210Z,100.00
2022-09-02T08:16:31.822Z,100.00
2022-09-02T08:19:01.542Z,100.00
2022-09-02T08:21:29.751Z,100.00
2022-09-02T08:23:58.975Z,100.00
2022-09-02T08:26:28.458Z,100.00
2022-09-02T08:28:56.910Z,100.00
2022-09-02T08:31:26.195Z,100.00
2022-09-02T08:33:54.494Z,100.00
2022-09-02T08:36:23.993Z,100.00
2022-09-02T08:38:52.223Z,100.00
2022-09-02T08:41:23.453Z,100.00
2022-09-02T08:43:54.051Z,100.00
2022-09-02T08:46:26.018Z,100.00
2022-09-02T08:48:59.420Z,100.00
2022-09-02T08:51:37.621Z,100.00
2022-09-02T08:54:10.949Z,100.00
2022-09-02T08:56:42.607Z,100.00
2022-09-02T08:59:13.118Z,100.00
2022-09-02T09:01:49.532Z,100.00
2022-09-02T09:04:22.073Z,100.00
2022-09-02T09:07:12.870Z,100.00
2022-09-02T09:09:55.142Z,100.00
2022-09-02T09:12:34.369Z,100.00
2022-09-02T09:15:10.560Z,100.00
2022-09-02T09:17:45.801Z,100.00
2022-09-02T09:20:19.688Z,100.00
2022-09-02T09:22:52.202Z,100.00
2022-09-02T09:25:20.783Z,100.00
2022-09-02T09:27:48.919Z,100.00
2022-09-02T09:30:17.840Z,100.00
2022-09-02T09:32:49.040Z,100.00
2022-09-02T09:35:18.091Z,100.00
2022-09-02T09:37:48.153Z,100.00
2022-09-02T09:40:32.350Z,100.00
2022-09-02T09:43:15.170Z,100.00
2022-09-02T09:45:45.767Z,100.00
2022-09-02T09:48:27.917Z,100.00
2022-09-02T09:51:17.306Z,100.00
2022-09-02T09:53:46.362Z,100.00
2022-09-02T09:56:37.602Z,100.00
2022-09-02T09:59:10.136Z,100.00
2022-09-02T10:01:38.517Z,100.00
2022-09-02T10:04:26.233Z,100.00
2022-09-02T10:06:58.503Z,100.00
2022-09-02T10:09:32.621Z,100.00
2022-09-02T10:12:05.195Z,100.00
2022-09-02T10:14:39.219Z,95.67
2022-09-02T10:17:26.151Z,92.43
2022-09-02T10:20:01.156Z,98.56
2022-09-02T10:23:01.934Z,100.00
2022-09-02T10:25:38.564Z,93.99
2022-09-02T10:28:22.799Z,89.60
2022-09-02T10:30:59.833Z,92.32
2022-09-02T10:33:36.181Z,92.22
2022-09-02T10:36:14.001Z,89.52
2022-09-02T10:38:47.855Z,94.64
2022-09-02T10:41:27.643Z,89.46
2022-09-02T10:44:13.818Z,87.28
2022-09-02T10:46:54.942Z,83.75
2022-09-02T10:49:32.889Z,74.22
2022-09-02T10:52:11.383Z,70.16
2022-09-02T10:54:50.446Z,71.35
2022-09-02T10:57:25.649Z,69.94
2022-09-02T11:00:02.875Z,70.22
2022-09-02T11:02:38.975Z,71.92
2022-09-02T11:05:14.045Z,70.36
2022-09-02T11:07:49.617Z,69.79
2022-09-02T11:10:23.372Z,71.72
2022-09-02T11:12:56.746Z,67.99
2022-09-02T11:15:37.153Z,68.88
2022-09-02T11:18:15.932Z,66.24
2022-09-02T11:20:50.851Z,65.26
2022-09-02T11:23:28.131Z,67.97
2022-09-02T11:26:03.356Z,65.73
2022-09-02T11:28:39.669Z,66.68
2022-09-02T11:31:18.323Z,63.85
2022-09-02T11:33:54.486Z,63.99
2022-09-02T11:36:23.068Z,62.90
2022-09-02T11:38:58.589Z,62.59
2022-09-02T11:41:35.870Z,62.56
2022-09-02T11:44:22.547Z,60.51
2022-09-02T11:47:08.075Z,61.77
2022-09-02T11:50:11.147Z,60.26
2022-09-02T11:52:58.096Z,60.86
2022-09-02T11:55:33.244Z,61.69
2022-09-02T11:58:02.875Z,61.51
2022-09-02T12:00:34.753Z,61.32
2022-09-02T12:03:43.057Z,61.00
2022-09-02T12:06:13.913Z,62.32
2022-09-02T12:09:06.674Z,59.97
2022-09-02T12:11:45.571Z,59.59
2022-09-02T12:15:07.261Z,60.67
2022-09-02T12:17:55.236Z,58.65
2022-09-02T12:21:15.973Z,59.03
2022-09-02T12:24:26.499Z,60.43
2022-09-02T12:27:25.370Z,61.00
2022-09-02T12:29:55.608Z,59.23
2022-09-02T12:33:09.721Z,59.96
2022-09-02T12:35:57.782Z,58.18
2022-09-02T12:38:31.351Z,58.30
2022-09-02T12:41:13.302Z,58.75
2022-09-02T12:43:53.789Z,58.80
2022-09-02T12:46:29.592Z,57.99
2022-09-02T12:49:05.609Z,58.51
2022-09-02T12:51:56.491Z,58.23
2022-09-02T12:54:31.192Z,58.39
2022-09-02T12:57:00.021Z,58.25
2022-09-02T12:59:31.392Z,57.76
2022-09-02T13:02:17.034Z,59.71
2022-09-02T13:04:57.854Z,57.65
2022-09-02T13:07:59.833Z,57.66
2022-09-02T13:11:04.734Z,59.14
2022-09-02T13:14:13.839Z,58.17
2022-09-02T13:16:53.789Z,59.44
2022-09-02T13:19:51.353Z,59.04
2022-09-02T13:23:11.822Z,61.34
2022-09-02T13:26:05.597Z,61.27
2022-09-02T13:29:15.080Z,59.65
2022-09-02T13:31:43.639Z,56.94
2022-09-02T13:34:14.684Z,57.31
2022-09-02T13:36:45.758Z,57.11
2022-09-02T13:39:18.225Z,58.21
2022-09-02T13:41:46.454Z,56.52
2022-09-02T13:44:22.623Z,56.02
2022-09-02T13:46:54.224Z,56.39
2022-09-02T13:49:24.924Z,56.51
2022-09-02T13:51:55.074Z,56.15
2022-09-02T13:54:34.969Z,57.52
2022-09-02T13:57:06.115Z,57.80
2022-09-02T13:59:40.895Z,55.92
2022-09-02T14:02:21.969Z,58.06
2022-09-02T14:04:53.457Z,56.58
2022-09-02T14:07:31.630Z,56.85
2022-09-02T14:10:04.062Z,56.52
2022-09-02T14:12:35.058Z,55.60
2022-09-02T14:15:03.797Z,55.26
2022-09-02T14:17:36.257Z,55.88
2022-09-02T14:20:17.844Z,56.82
2022-09-02T14:22:53.280Z,57.67
2022-09-02T14:25:27.241Z,57.47
2022-09-02T14:27:58.126Z,56.72
2022-09-02T14:30:34.972Z,56.80
2022-09-02T14:33:27.398Z,56.31
2022-09-02T14:36:00.965Z,54.14
2022-09-02T14:38:32.392Z,53.77
2022-09-02T14:41:03.940Z,54.70
2022-09-02T14:43:47.599Z,55.01
2022-09-02T14:46:25.298Z,54.07
2022-09-02T14:49:00.673Z,54.20
2022-09-02T14:51:36.119Z,53.57
2022-09-02T14:54:05.732Z,53.77
2022-09-02T14:56:56.973Z,54.89
2022-09-02T14:59:27.298Z,54.36
2022-09-02T15:01:58.385Z,54.20
2022-09-02T15:04:27.705Z,53.36
2022-09-02T15:06:56.929Z,53.13
2022-09-02T15:09:25.458Z,53.10
2022-09-02T15:12:02.661Z,52.67
2022-09-02T15:14:31.341Z,52.22
2022-09-02T15:16:59.766Z,52.14
2022-09-02T15:19:27.971Z,52.33
2022-09-02T15:21:56.268Z,52.33
2022-09-02T15:24:24.585Z,52.83
2022-09-02T15:26:53.157Z,52.73
2022-09-02T15:29:26.945Z,52.40
2022-09-02T15:31:59.891Z,52.43
2022-09-02T15:34:27.966Z,53.33
2022-09-02T15:36:57.306Z,53.69
2022-09-02T15:39:26.005Z,52.99
2022-09-02T15:41:55.363Z,52.80
2022-09-02T15:44:25.935Z,53.09
2022-09-02T15:46:54.345Z,52.33
2022-09-02T15:49:23.642Z,52.76
2022-09-02T15:51:55.194Z,52.96
2022-09-02T15:54:24.865Z,53.18
2022-09-02T15:56:57.060Z,52.58
2022-09-02T15:59:28.176Z,52.07
2022-09-02T16:01:58.827Z,52.05
2022-09-02T16:04:29.380Z,52.34
2022-09-02T16:06:57.649Z,52.86
2022-09-02T16:09:26.354Z,54.27
2022-09-02T16:11:56.155Z,55.13
2022-09-02T16:14:27.597Z,54.11
2022-09-02T16:16:57.505Z,54.48
2022-09-02T16:19:29.987Z,54.29
2022-09-02T16:21:59.082Z,52.75
2022-09-02T16:24:27.687Z,51.87
2022-09-02T16:26:55.781Z,52.47
2022-09-02T16:29:24.222Z,52.75
2022-09-02T16:32:07.866Z,52.66
2022-09-02T16:34:42.380Z,53.09
2022-09-02T16:37:10.494Z,53.46
2022-09-02T16:39:38.923Z,54.34
2022-09-02T16:42:07.310Z,53.50
2022-09-02T16:44:35.812Z,54.52
2022-09-02T16:47:05.540Z,54.74
2022-09-02T16:49:34.827Z,54.23
2022-09-02T16:52:03.096Z,54.27
2022-09-02T16:54:32.960Z,54.54
2022-09-02T16:57:03.756Z,54.72
2022-09-02T16:59:31.892Z,55.62
2022-09-02T17:02:00.330Z,55.84
2022-09-02T17:04:30.102Z,55.53
2022-09-02T17:06:58.367Z,55.90
2022-09-02T17:09:26.677Z,56.17
2022-09-02T17:11:55.002Z,56.86
2022-09-02T17:14:23.440Z,56.56
2022-09-02T17:16:52.864Z,57.12
2022-09-02T17:19:22.729Z,56.86
2022-09-02T17:21:53.848Z,57.38
2022-09-02T17:24:24.379Z,57.66
2022-09-02T17:26:56.018Z,57.92
2022-09-02T17:29:48.174Z,58.27
2022-09-02T17:32:16.873Z,58.48
2022-09-02T17:34:45.689Z,58.31
2022-09-02T17:37:15.259Z,58.95
2022-09-02T17:39:43.690Z,59.14
2022-09-02T17:42:12.134Z,59.91
2022-09-02T17:44:40.584Z,60.28
2022-09-02T17:47:10.544Z,60.88
2022-09-02T17:49:42.353Z,61.12
2022-09-02T17:52:11.468Z,60.63
2022-09-02T17:54:42.680Z,61.68
2022-09-02T17:57:25.536Z,62.07
2022-09-02T18:00:06.898Z,61.87
2022-09-02T18:03:13.945Z,62.88
2022-09-02T18:05:54.765Z,62.87
2022-09-02T18:08:35.678Z,63.63
2022-09-02T18:11:07.407Z,63.78
2022-09-02T18:13:54.430Z,65.99
2022-09-02T18:16:37.073Z,66.38
2022-09-02T18:19:13.665Z,66.04
2022-09-02T18:22:06.261Z,66.25
2022-09-02T18:25:00.417Z,65.87
2022-09-02T18:27:41.481Z,65.73
2022-09-02T18:30:11.769Z,66.89
2022-09-02T18:32:59.789Z,66.95
2022-09-02T18:35:39.576Z,68.37
2022-09-02T18:38:15.962Z,68.09
2022-09-02T18:40:50.479Z,71.04
2022-09-02T18:43:26.764Z,72.01
2022-09-02T18:46:00.932Z,71.45
2022-09-02T18:48:32.576Z,73.47
2022-09-02T18:51:06.640Z,73.58
2022-09-02T18:53:40.498Z,78.54
2022-09-02T18:56:11.577Z,80.37
2022-09-02T18:58:45.343Z,79.42
2022-09-02T19:01:21.599Z,84.12
2022-09-02T19:03:50.398Z,83.10
2022-09-02T19:06:21.225Z,85.72
2022-09-02T19:08:55.250Z,83.30
2022-09-02T19:11:24.164Z,83.02
2022-09-02T19:13:56.029Z,81.46
2022-09-02T19:16:27.964Z,78.83
2022-09-02T19:18:56.451Z,77.94
2022-09-02T19:21:34.952Z,79.51
2022-09-02T19:24:05.309Z,80.97
2022-09-02T19:26:34.301Z,78.29
2022-09-02T19:29:04.931Z,79.59
2022-09-02T19:31:33.370Z,86.75
2022-09-02T19:34:04.507Z,79.24
2022-09-02T19:36:34.250Z,81.54
2022-09-02T19:39:02.405Z,81.43
2022-09-02T19:41:30.524Z,80.57
2022-09-02T19:44:00.248Z,81.09
2022-09-02T19:47:30.791Z,82.00
2022-09-02T19:49:18.107Z,86.50
2022-09-02T19:51:47.202Z,84.91
2022-09-02T19:54:17.880Z,93.88
2022-09-02T19:56:46.285Z,94.90
2022-09-02T19:59:14.514Z,89.42
2022-09-02T20:01:44.154Z,97.46
2022-09-02T20:04:12.374Z,100.00
2022-09-02T20:06:43.327Z,100.00
2022-09-02T20:09:12.726Z,100.00
2022-09-02T20:11:41.182Z,100.00
2022-09-02T20:14:09.428Z,100.00
2022-09-02T20:16:37.534Z,100.00
2022-09-02T20:19:07.192Z,100.00
2022-09-02T20:21:42.185Z,100.00
2022-09-02T20:24:12.257Z,100.00
2022-09-02T20:26:49.836Z,100.00
2022-09-02T20:29:34.755Z,100.00
2022-09-02T20:32:14.222Z,100.00
2022-09-02T20:34:57.328Z,100.00
2022-09-02T20:37:36.004Z,100.00
2022-09-02T20:40:27.260Z,100.00
2022-09-02T20:43:28.332Z,100.00
2022-09-02T20:45:59.559Z,100.00
2022-09-02T20:48:45.128Z,100.00
2022-09-02T20:51:23.733Z,100.00
2022-09-02T20:54:08.831Z,100.00
2022-09-02T20:56:46.842Z,100.00
2022-09-02T20:59:22.780Z,100.00
2022-09-02T21:01:56.807Z,100.00
2022-09-02T21:04:32.823Z,100.00
2022-09-02T21:07:08.411Z,100.00
2022-09-02T21:09:43.708Z,100.00
2022-09-02T21:12:19.764Z,100.00
2022-09-02T21:14:51.577Z,100.00
2022-09-02T21:17:28.610Z,100.00
2022-09-02T21:20:07.861Z,100.00
2022-09-02T21:22:41.094Z,100.00
2022-09-02T21:25:13.548Z,100.00
2022-09-02T21:27:51.947Z,100.00
2022-09-02T21:30:23.090Z,100.00
2022-09-02T21:32:53.487Z,100.00
2022-09-02T21:35:25.440Z,100.00
2022-09-02T21:38:02.552Z,100.00
2022-09-02T21:40:49.562Z,100.00
2022-09-02T21:43:32.277Z,100.00
2022-09-02T21:46:08.593Z,100.00
2022-09-02T21:48:50.845Z,100.00
2022-09-02T21:51:25.722Z,100.00
2022-09-02T21:54:05.910Z,100.00
2022-09-02T21:56:50.037Z,100.00
2022-09-02T21:59:38.557Z,100.00
2022-09-02T22:02:12.753Z,100.00
2022-09-02T22:04:56.207Z,100.00
2022-09-02T22:07:34.985Z,100.00
2022-09-02T22:10:20.877Z,100.00
2022-09-02T22:12:52.827Z,100.00
2022-09-02T22:15:32.100Z,100.00
2022-09-02T22:18:10.891Z,100.00
2022-09-02T22:20:43.824Z,100.00
2022-09-02T22:23:23.851Z,100.00
2022-09-02T22:25:54.089Z,100.00
2022-09-02T22:28:31.175Z,100.00
2022-09-02T22:31:05.543Z,100.00
2022-09-02T22:33:40.392Z,100.00
2022-09-02T22:36:14.750Z,100.00
2022-09-02T22:38:47.061Z,100.00
2022-09-02T22:41:24.978Z,100.00
2022-09-02T22:43:57.279Z,100.00
2022-09-02T22:46:50.882Z,100.00
2022-09-02T22:49:45.369Z,100.00
2022-09-02T22:52:44.362Z,100.00
2022-09-02T22:55:13.727Z,100.00
2022-09-02T22:57:52.185Z,100.00
2022-09-02T23:00:24.375Z,100.00
2022-09-02T23:03:02.391Z,100.00
2022-09-02T23:05:47.875Z,100.00
2022-09-02T23:08:17.848Z,100.00
2022-09-02T23:10:53.430Z,100.00
2022-09-02T23:13:36.223Z,100.00
2022-09-02T23:16:11.974Z,100.00
2022-09-02T23:18:49.278Z,100.00
2022-09-02T23:21:27.269Z,100.00
2022-09-02T23:24:04.006Z,100.00
2022-09-02T23:26:37.831Z,100.00
2022-09-02T23:29:25.834Z,100.00
2022-09-02T23:32:33.946Z,100.00
2022-09-02T23:35:17.346Z,100.00
2022-09-02T23:38:05.459Z,100.00
2022-09-02T23:40:40.874Z,100.00
2022-09-02T23:43:10.000Z,100.00
2022-09-02T23:45:39.774Z,100.00
2022-09-02T23:48:20.778Z,100.00
2022-09-02T23:51:05.492Z,100.00
2022-09-02T23:53:40.346Z,100.00
2022-09-02T23:56:21.651Z,100.00
2022-09-02T23:59:09.209Z,100.00
